createdAt,value
2023-05-17T00:00:26.625Z,95130.31
2023-05-17T00:02:53.198Z,95129.09
2023-05-17T00:05:19.962Z,95123.28
2023-05-17T00:07:47.302Z,95126.94
2023-05-17T00:10:14.109Z,95136.25
2023-05-17T00:12:40.797Z,95135.47
2023-05-17T00:15:08.063Z,95139.09
2023-05-17T00:17:37.364Z,95138.13
2023-05-17T00:20:05.436Z,95145.53
2023-05-17T00:22:32.014Z,95141.34
2023-05-17T00:24:58.692Z,95141.47
2023-05-17T00:27:25.416Z,95139.97
2023-05-17T00:29:52.158Z,95152.09
2023-05-17T00:32:18.746Z,95144.16
2023-05-17T00:34:45.483Z,95145.69
2023-05-17T00:37:12.196Z,95146.31
2023-05-17T00:39:38.766Z,95146.31
2023-05-17T00:42:06.166Z,95148.31
2023-05-17T00:44:32.807Z,95147.88
2023-05-17T00:47:00.001Z,95144.34
2023-05-17T00:49:27.157Z,95143.69
2023-05-17T00:51:54.430Z,95144.75
2023-05-17T00:54:22.277Z,95144.19
2023-05-17T00:56:49.435Z,95147.81
2023-05-17T00:59:17.768Z,95151.75
2023-05-17T01:01:44.687Z,95146.75
2023-05-17T01:04:12.547Z,95147.69
2023-05-17T01:06:40.382Z,95146.31
2023-05-17T01:09:08.300Z,95152.63
2023-05-17T01:11:54.918Z,95146.94
2023-05-17T01:14:21.459Z,95150.47
2023-05-17T01:17:03.068Z,95157.34
2023-05-17T01:19:51.415Z,95147.50
2023-05-17T01:22:31.960Z,95162.09
2023-05-17T01:25:07.619Z,95152.75
2023-05-17T01:27:36.736Z,95164.66
2023-05-17T01:30:04.134Z,95161.00
2023-05-17T01:32:33.460Z,95168.72
2023-05-17T01:35:00.504Z,95161.84
2023-05-17T01:37:27.146Z,95173.75
2023-05-17T01:39:53.890Z,95175.50
2023-05-17T01:42:25.819Z,95170.59
2023-05-17T01:45:04.171Z,95173.41
2023-05-17T01:47:37.810Z,95175.84
2023-05-17T01:50:07.186Z,95174.59
2023-05-17T01:53:03.530Z,95180.13
2023-05-17T01:56:15.867Z,95178.59
2023-05-17T01:58:47.515Z,95185.47
2023-05-17T02:01:18.199Z,95180.75
2023-05-17T02:03:52.402Z,95183.03
2023-05-17T02:06:19.004Z,95181.41
2023-05-17T02:08:45.814Z,95187.34
2023-05-17T02:11:12.755Z,95184.91
2023-05-17T02:13:40.555Z,95189.09
2023-05-17T02:16:07.731Z,95187.06
2023-05-17T02:18:35.852Z,95196.63
2023-05-17T02:21:03.861Z,95194.75
2023-05-17T02:23:30.404Z,95194.06
2023-05-17T02:25:57.092Z,95198.50
2023-05-17T02:28:23.790Z,95198.50
2023-05-17T02:30:50.393Z,95193.84
2023-05-17T02:33:17.080Z,95198.53
2023-05-17T02:35:43.774Z,95186.63
2023-05-17T02:38:10.559Z,95196.47
2023-05-17T02:40:37.144Z,95202.63
2023-05-17T02:43:03.758Z,95198.31
2023-05-17T02:45:30.751Z,95202.06
2023-05-17T02:47:57.537Z,95210.00
2023-05-17T02:50:24.120Z,95199.75
2023-05-17T02:52:51.142Z,95205.38
2023-05-17T02:55:18.134Z,95204.66
2023-05-17T02:57:44.859Z,95202.31
2023-05-17T03:00:11.943Z,95213.66
2023-05-17T03:02:38.743Z,95214.81
2023-05-17T03:05:06.225Z,95213.00
2023-05-17T03:07:32.887Z,95216.59
2023-05-17T03:09:59.757Z,95223.44
2023-05-17T03:12:30.253Z,95228.59
2023-05-17T03:14:57.389Z,95235.81
2023-05-17T03:17:24.435Z,95235.56
2023-05-17T03:19:51.438Z,95241.06
2023-05-17T03:22:18.177Z,95233.72
2023-05-17T03:24:45.022Z,95239.78
2023-05-17T03:27:11.672Z,95238.00
2023-05-17T03:29:39.197Z,95246.41
2023-05-17T03:32:06.744Z,95241.28
2023-05-17T03:34:33.304Z,95248.84
2023-05-17T03:37:01.457Z,95257.59
2023-05-17T03:39:28.080Z,95258.19
2023-05-17T03:41:55.068Z,95261.09
2023-05-17T03:44:22.953Z,95262.72
2023-05-17T03:46:50.305Z,95262.59
2023-05-17T03:49:18.014Z,95261.31
2023-05-17T03:51:45.770Z,95269.00
2023-05-17T03:54:12.454Z,95276.81
2023-05-17T03:56:39.025Z,95271.69
2023-05-17T03:59:05.761Z,95287.97
2023-05-17T04:01:33.259Z,95284.38
2023-05-17T04:04:01.419Z,95279.63
2023-05-17T04:06:28.361Z,95296.03
2023-05-17T04:08:55.371Z,95301.28
2023-05-17T04:11:24.341Z,95300.00
2023-05-17T04:13:51.603Z,95299.50
2023-05-17T04:16:18.484Z,95303.25
2023-05-17T04:18:45.779Z,95309.28
2023-05-17T04:21:13.165Z,95304.03
2023-05-17T04:23:40.006Z,95299.75
2023-05-17T04:26:06.676Z,95309.06
2023-05-17T04:28:37.910Z,95312.34
2023-05-17T04:31:08.629Z,95312.66
2023-05-17T04:33:36.872Z,95315.94
2023-05-17T04:36:06.470Z,95320.94
2023-05-17T04:38:33.888Z,95321.03
2023-05-17T04:41:07.332Z,95328.97
2023-05-17T04:43:36.846Z,95326.06
2023-05-17T04:46:07.024Z,95334.91
2023-05-17T04:48:34.283Z,95332.94
2023-05-17T04:51:02.509Z,95342.94
2023-05-17T04:53:29.779Z,95341.19
2023-05-17T04:55:58.308Z,95341.31
2023-05-17T04:58:26.759Z,95355.88
2023-05-17T05:00:57.597Z,95346.91
2023-05-17T05:03:24.455Z,95351.09
2023-05-17T05:05:51.578Z,95348.28
2023-05-17T05:08:18.463Z,95353.78
2023-05-17T05:10:46.284Z,95349.44
2023-05-17T05:13:14.811Z,95353.97
2023-05-17T05:15:42.918Z,95357.25
2023-05-17T05:18:09.642Z,95366.81
2023-05-17T05:20:36.509Z,95370.16
2023-05-17T05:23:06.064Z,95363.19
2023-05-17T05:25:34.270Z,95368.50
2023-05-17T05:28:01.608Z,95369.44
2023-05-17T05:30:30.130Z,95376.66
2023-05-17T05:32:56.910Z,95368.84
2023-05-17T05:35:29.419Z,95369.50
2023-05-17T05:37:58.262Z,95371.19
2023-05-17T05:40:25.058Z,95372.69
2023-05-17T05:42:52.534Z,95375.28
2023-05-17T05:45:21.640Z,95374.59
2023-05-17T05:47:50.780Z,95378.94
2023-05-17T05:50:18.322Z,95377.91
2023-05-17T05:52:46.340Z,95375.16
2023-05-17T05:55:13.129Z,95379.56
2023-05-17T05:57:39.926Z,95377.53
2023-05-17T06:00:07.416Z,95384.50
2023-05-17T06:02:40.011Z,95388.81
2023-05-17T06:05:07.098Z,95381.31
2023-05-17T06:07:33.927Z,95389.56
2023-05-17T06:10:00.648Z,95385.03
2023-05-17T06:12:27.317Z,95385.97
2023-05-17T06:14:53.933Z,95392.66
2023-05-17T06:17:21.516Z,95393.41
2023-05-17T06:19:49.336Z,95386.16
2023-05-17T06:22:16.429Z,95389.94
2023-05-17T06:24:43.173Z,95391.97
2023-05-17T06:27:09.955Z,95395.63
2023-05-17T06:29:36.679Z,95392.06
2023-05-17T06:32:04.207Z,95393.47
2023-05-17T06:34:30.848Z,95387.53
2023-05-17T06:36:57.444Z,95395.13
2023-05-17T06:39:24.073Z,95394.44
2023-05-17T06:41:50.878Z,95396.44
2023-05-17T06:44:17.857Z,95397.84
2023-05-17T06:46:44.472Z,95402.03
2023-05-17T06:49:11.101Z,95404.06
2023-05-17T06:51:37.881Z,95410.59
2023-05-17T06:54:04.620Z,95420.22
2023-05-17T06:56:31.800Z,95411.66
2023-05-17T06:58:58.473Z,95424.16
2023-05-17T07:01:25.897Z,95427.13
2023-05-17T07:03:52.808Z,95425.66
2023-05-17T07:06:19.611Z,95426.75
2023-05-17T07:08:46.590Z,95426.59
2023-05-17T07:11:13.207Z,95426.38
2023-05-17T07:13:39.802Z,95416.84
2023-05-17T07:16:10.618Z,95430.03
2023-05-17T07:18:37.567Z,95426.88
2023-05-17T07:21:04.636Z,95437.72
2023-05-17T07:23:31.332Z,95430.13
2023-05-17T07:25:57.915Z,95433.66
2023-05-17T07:28:26.220Z,95433.63
2023-05-17T07:30:52.829Z,95435.00
2023-05-17T07:33:19.446Z,95433.34
2023-05-17T07:35:46.044Z,95441.09
2023-05-17T07:38:12.680Z,95442.47
2023-05-17T07:40:39.333Z,95442.84
2023-05-17T07:43:06.102Z,95440.50
2023-05-17T07:45:32.753Z,95447.25
2023-05-17T07:47:59.576Z,95438.19
2023-05-17T07:50:26.654Z,95435.59
2023-05-17T07:52:53.562Z,95436.75
2023-05-17T07:55:21.370Z,95434.91
2023-05-17T07:57:48.505Z,95440.97
2023-05-17T08:00:15.817Z,95436.31
2023-05-17T08:02:43.139Z,95432.09
2023-05-17T08:05:10.779Z,95431.00
2023-05-17T08:07:37.651Z,95428.94
2023-05-17T08:10:04.541Z,95431.00
2023-05-17T08:12:31.350Z,95430.03
2023-05-17T08:14:58.184Z,95436.94
2023-05-17T08:17:24.834Z,95428.34
2023-05-17T08:19:51.758Z,95436.16
2023-05-17T08:22:18.614Z,95441.78
2023-05-17T08:24:46.782Z,95440.91
2023-05-17T08:27:13.345Z,95441.75
2023-05-17T08:29:40.137Z,95442.44
2023-05-17T08:32:07.170Z,95444.25
2023-05-17T08:34:34.168Z,95444.56
2023-05-17T08:37:01.221Z,95451.09
2023-05-17T08:39:27.994Z,95455.53
2023-05-17T08:41:59.395Z,95456.75
2023-05-17T08:44:27.245Z,95451.06
2023-05-17T08:46:56.541Z,95452.19
2023-05-17T08:49:25.999Z,95450.91
2023-05-17T08:51:54.451Z,95450.13
2023-05-17T08:54:21.106Z,95461.09
2023-05-17T08:56:52.157Z,95453.44
2023-05-17T08:59:22.115Z,95453.84
2023-05-17T09:01:51.188Z,95458.16
2023-05-17T09:04:18.186Z,95457.63
2023-05-17T09:06:45.666Z,95457.81
2023-05-17T09:09:12.529Z,95462.75
2023-05-17T09:11:39.174Z,95462.38
2023-05-17T09:14:07.570Z,95463.34
2023-05-17T09:16:37.256Z,95475.16
2023-05-17T09:19:07.848Z,95476.81
2023-05-17T09:21:35.245Z,95472.53
2023-05-17T09:24:06.964Z,95472.63
2023-05-17T09:26:40.266Z,95476.25
2023-05-17T09:29:16.427Z,95470.06
2023-05-17T09:31:43.949Z,95468.91
2023-05-17T09:34:11.105Z,95467.06
2023-05-17T09:36:38.799Z,95477.00
2023-05-17T09:39:07.869Z,95478.81
2023-05-17T09:41:56.955Z,95483.81
2023-05-17T09:44:26.564Z,95468.00
2023-05-17T09:46:53.228Z,95482.34
2023-05-17T09:49:19.807Z,95485.84
2023-05-17T09:51:50.068Z,95482.09
2023-05-17T09:54:17.953Z,95484.88
2023-05-17T09:56:45.154Z,95481.13
2023-05-17T09:59:13.656Z,95477.28
2023-05-17T10:01:41.762Z,95476.72
2023-05-17T10:04:12.492Z,95480.31
2023-05-17T10:09:14.014Z,95484.94
2023-05-17T10:11:44.259Z,95480.59
2023-05-17T10:14:33.836Z,95477.13
2023-05-17T10:17:02.990Z,95474.56
2023-05-17T10:19:30.580Z,95467.44
2023-05-17T10:22:05.120Z,95458.06
2023-05-17T10:24:46.611Z,95463.34
2023-05-17T10:27:13.682Z,95463.44
2023-05-17T10:29:41.378Z,95462.69
2023-05-17T10:32:08.598Z,95466.34
2023-05-17T10:34:38.312Z,95462.81
2023-05-17T10:37:05.907Z,95464.56
2023-05-17T10:39:34.954Z,95460.28
2023-05-17T10:42:14.169Z,95463.94
2023-05-17T10:44:42.158Z,95463.56
2023-05-17T10:47:11.229Z,95460.16
2023-05-17T10:49:45.064Z,95460.16
2023-05-17T10:52:23.758Z,95456.84
2023-05-17T10:54:51.795Z,95454.53
2023-05-17T10:57:21.528Z,95455.94
2023-05-17T10:59:59.684Z,95452.97
2023-05-17T11:02:28.171Z,95452.97
2023-05-17T11:04:57.698Z,95450.47
2023-05-17T11:07:27.934Z,95455.13
2023-05-17T11:10:08.492Z,95447.22
2023-05-17T11:12:40.213Z,95445.69
2023-05-17T11:15:17.682Z,95438.50
2023-05-17T11:17:44.586Z,95437.31
2023-05-17T11:20:26.801Z,95431.72
2023-05-17T11:23:00.830Z,95432.22
2023-05-17T11:25:36.262Z,95439.47
2023-05-17T11:28:10.203Z,95432.38
2023-05-17T11:30:43.716Z,95427.78
2023-05-17T11:33:21.198Z,95435.69
2023-05-17T11:35:57.437Z,95430.72
2023-05-17T11:38:30.282Z,95429.59
2023-05-17T11:40:57.791Z,95440.06
2023-05-17T11:43:27.345Z,95428.16
2023-05-17T11:46:01.567Z,95427.09
2023-05-17T11:48:30.552Z,95432.34
2023-05-17T11:50:58.924Z,95433.50
2023-05-17T11:53:28.437Z,95433.31
2023-05-17T11:55:56.053Z,95440.28
2023-05-17T11:58:27.066Z,95437.84
2023-05-17T12:00:55.024Z,95439.78
2023-05-17T12:03:24.726Z,95437.81
2023-05-17T12:06:09.694Z,95432.75
2023-05-17T12:08:38.592Z,95444.16
2023-05-17T12:11:07.636Z,95440.47
2023-05-17T12:13:35.662Z,95444.69
2023-05-17T12:16:07.296Z,95437.50
2023-05-17T12:18:41.105Z,95436.81
2023-05-17T12:21:09.263Z,95444.69
2023-05-17T12:23:40.599Z,95437.03
2023-05-17T12:26:16.287Z,95436.13
2023-05-17T12:28:45.075Z,95437.28
2023-05-17T12:31:18.546Z,95446.09
2023-05-17T12:33:47.925Z,95444.38
2023-05-17T12:36:15.618Z,95437.19
2023-05-17T12:38:43.638Z,95437.22
2023-05-17T12:41:12.860Z,95436.59
2023-05-17T12:43:40.763Z,95431.34
2023-05-17T12:46:07.896Z,95425.38
2023-05-17T12:48:38.984Z,95427.84
2023-05-17T12:51:11.748Z,95434.47
2023-05-17T12:53:43.642Z,95433.47
2023-05-17T12:56:22.645Z,95435.91
2023-05-17T12:59:04.675Z,95436.84
2023-05-17T13:01:39.964Z,95432.00
2023-05-17T13:04:06.758Z,95431.41
2023-05-17T13:06:51.122Z,95436.19
2023-05-17T13:09:19.475Z,95435.81
2023-05-17T13:11:53.718Z,95433.88
2023-05-17T13:14:47.230Z,95428.47
2023-05-17T13:17:35.411Z,95427.66
2023-05-17T13:20:02.836Z,95432.41
2023-05-17T13:22:29.573Z,95434.84
2023-05-17T13:24:56.464Z,95436.66
2023-05-17T13:27:23.210Z,95437.28
2023-05-17T13:29:50.200Z,95437.31
2023-05-17T13:32:16.792Z,95437.56
2023-05-17T13:34:43.628Z,95431.91
2023-05-17T13:37:12.399Z,95434.84
2023-05-17T13:39:41.720Z,95429.84
2023-05-17T13:42:08.863Z,95436.31
2023-05-17T13:44:35.541Z,95427.00
2023-05-17T13:47:02.249Z,95431.63
2023-05-17T13:49:29.042Z,95427.75
2023-05-17T13:51:56.593Z,95433.16
2023-05-17T13:54:24.254Z,95431.16
2023-05-17T13:56:51.181Z,95431.44
2023-05-17T13:59:17.828Z,95430.44
2023-05-17T14:01:45.259Z,95430.38
2023-05-17T14:04:12.208Z,95432.22
2023-05-17T14:06:39.187Z,95425.63
2023-05-17T14:09:06.312Z,95437.66
2023-05-17T14:11:33.531Z,95440.28
2023-05-17T14:14:01.229Z,95432.34
2023-05-17T14:16:28.040Z,95437.81
2023-05-17T14:18:54.899Z,95428.69
2023-05-17T14:21:21.536Z,95426.66
2023-05-17T14:23:48.450Z,95430.38
2023-05-17T14:26:16.133Z,95432.03
2023-05-17T14:28:42.982Z,95430.34
2023-05-17T14:31:10.814Z,95423.91
2023-05-17T14:33:37.733Z,95429.66
2023-05-17T14:36:04.812Z,95425.53
2023-05-17T14:38:31.752Z,95418.78
2023-05-17T14:41:00.713Z,95431.34
2023-05-17T14:43:28.898Z,95424.63
2023-05-17T14:45:55.676Z,95422.25
2023-05-17T14:48:22.615Z,95426.34
2023-05-17T14:50:49.556Z,95424.63
2023-05-17T14:53:16.593Z,95421.16
2023-05-17T14:55:43.417Z,95426.69
2023-05-17T14:58:13.159Z,95421.19
2023-05-17T15:00:41.985Z,95424.38
2023-05-17T15:03:09.259Z,95426.59
2023-05-17T15:05:36.401Z,95431.56
2023-05-17T15:08:03.121Z,95427.34
2023-05-17T15:10:30.028Z,95426.63
2023-05-17T15:12:57.014Z,95426.28
2023-05-17T15:15:23.715Z,95425.25
2023-05-17T15:17:50.588Z,95430.53
2023-05-17T15:20:18.390Z,95421.34
2023-05-17T15:22:45.132Z,95419.63
2023-05-17T15:25:11.905Z,95431.34
2023-05-17T15:27:38.514Z,95429.16
2023-05-17T15:30:05.861Z,95435.56
2023-05-17T15:32:33.888Z,95431.16
2023-05-17T15:35:00.679Z,95436.91
2023-05-17T15:37:27.845Z,95434.44
2023-05-17T15:39:54.423Z,95441.66
2023-05-17T15:42:21.149Z,95442.09
2023-05-17T15:44:47.850Z,95450.34
2023-05-17T15:47:14.677Z,95443.63
2023-05-17T15:49:41.550Z,95442.13
2023-05-17T15:52:08.936Z,95441.75
2023-05-17T15:54:35.565Z,95444.25
2023-05-17T15:57:02.471Z,95449.44
2023-05-17T15:59:29.217Z,95443.59
2023-05-17T16:01:55.838Z,95451.88
2023-05-17T16:04:22.552Z,95454.84
2023-05-17T16:06:49.541Z,95444.97
2023-05-17T16:09:16.756Z,95446.31
2023-05-17T16:11:43.771Z,95448.75
2023-05-17T16:14:10.473Z,95447.88
2023-05-17T16:16:51.573Z,95451.00
2023-05-17T16:19:19.646Z,95451.41
2023-05-17T16:21:49.226Z,95444.50
2023-05-17T16:24:17.439Z,95438.88
2023-05-17T16:26:44.352Z,95454.63
2023-05-17T16:29:13.840Z,95454.13
2023-05-17T16:31:40.629Z,95457.75
2023-05-17T16:34:07.456Z,95458.78
2023-05-17T16:36:34.115Z,95463.13
2023-05-17T16:39:00.780Z,95461.34
2023-05-17T16:41:28.819Z,95459.09
2023-05-17T16:43:55.560Z,95462.22
2023-05-17T16:46:24.682Z,95461.28
2023-05-17T16:48:53.378Z,95468.97
2023-05-17T16:51:20.065Z,95471.63
2023-05-17T16:53:46.776Z,95472.28
2023-05-17T16:56:13.624Z,95473.19
2023-05-17T16:58:41.112Z,95475.00
2023-05-17T17:01:08.053Z,95478.06
2023-05-17T17:03:34.838Z,95473.75
2023-05-17T17:06:01.974Z,95473.97
2023-05-17T17:08:28.683Z,95465.22
2023-05-17T17:10:55.276Z,95475.16
2023-05-17T17:13:21.862Z,95474.63
2023-05-17T17:15:50.980Z,95480.00
2023-05-17T17:18:17.782Z,95482.50
2023-05-17T17:20:45.315Z,95485.09
2023-05-17T17:23:12.401Z,95480.81
2023-05-17T17:25:38.985Z,95481.91
2023-05-17T17:28:05.724Z,95483.66
2023-05-17T17:30:32.726Z,95488.16
2023-05-17T17:32:59.606Z,95485.03
2023-05-17T17:35:26.518Z,95483.59
2023-05-17T17:37:53.270Z,95492.59
2023-05-17T17:40:20.366Z,95491.78
2023-05-17T17:42:47.200Z,95494.34
2023-05-17T17:45:14.117Z,95497.75
2023-05-17T17:47:42.276Z,95497.75
2023-05-17T17:50:09.485Z,95502.69
2023-05-17T17:52:37.347Z,95502.94
2023-05-17T17:55:04.578Z,95506.09
2023-05-17T17:57:32.099Z,95513.72
2023-05-17T17:59:58.783Z,95515.75
2023-05-17T18:02:25.979Z,95514.00
2023-05-17T18:04:52.633Z,95517.00
2023-05-17T18:07:19.441Z,95523.13
2023-05-17T18:09:46.210Z,95510.72
2023-05-17T18:12:12.961Z,95518.06
2023-05-17T18:14:39.547Z,95524.59
2023-05-17T18:17:08.239Z,95523.78
2023-05-17T18:19:35.001Z,95531.25
2023-05-17T18:22:02.401Z,95528.09
2023-05-17T18:24:29.110Z,95532.84
2023-05-17T18:26:55.850Z,95537.63
2023-05-17T18:29:22.592Z,95546.53
2023-05-17T18:31:49.295Z,95545.88
2023-05-17T18:34:16.191Z,95542.06
2023-05-17T18:36:42.826Z,95543.28
2023-05-17T18:39:10.118Z,95546.69
2023-05-17T18:41:36.928Z,95540.81
2023-05-17T18:44:03.873Z,95545.03
2023-05-17T18:46:30.748Z,95545.28
2023-05-17T18:48:57.705Z,95547.19
2023-05-17T18:51:24.690Z,95554.91
2023-05-17T18:53:51.560Z,95550.69
2023-05-17T18:56:22.670Z,95552.19
2023-05-17T18:58:55.506Z,95558.41
2023-05-17T19:01:22.521Z,95555.13
2023-05-17T19:03:51.513Z,95556.88
2023-05-17T19:06:19.907Z,95552.81
2023-05-17T19:08:46.790Z,95559.09
2023-05-17T19:11:13.532Z,95553.50
2023-05-17T19:13:40.335Z,95557.03
2023-05-17T19:16:07.682Z,95558.78
2023-05-17T19:18:34.477Z,95568.34
2023-05-17T19:21:01.785Z,95567.81
2023-05-17T19:23:32.016Z,95572.63
2023-05-17T19:25:59.309Z,95573.41
2023-05-17T19:28:26.113Z,95579.13
2023-05-17T19:30:52.872Z,95584.97
2023-05-17T19:33:19.796Z,95581.69
2023-05-17T19:35:46.861Z,95576.00
2023-05-17T19:38:13.652Z,95582.97
2023-05-17T19:40:41.301Z,95581.09
2023-05-17T19:43:08.040Z,95588.03
2023-05-17T19:45:34.650Z,95583.16
2023-05-17T19:48:02.318Z,95584.50
2023-05-17T19:50:29.677Z,95591.53
2023-05-17T19:52:56.655Z,95588.94
2023-05-17T19:55:24.676Z,95591.53
2023-05-17T19:57:51.456Z,95582.97
2023-05-17T20:00:18.592Z,95586.59
2023-05-17T20:02:47.335Z,95588.81
2023-05-17T20:05:17.083Z,95585.63
2023-05-17T20:07:44.029Z,95580.91
2023-05-17T20:10:11.304Z,95589.94
2023-05-17T20:12:38.675Z,95586.38
2023-05-17T20:15:06.521Z,95584.50
2023-05-17T20:17:33.512Z,95586.81
2023-05-17T20:20:00.421Z,95586.63
2023-05-17T20:22:27.188Z,95588.91
2023-05-17T20:24:55.802Z,95594.59
2023-05-17T20:27:25.922Z,95596.00
2023-05-17T20:29:52.637Z,95593.56
2023-05-17T20:32:19.350Z,95595.16
2023-05-17T20:34:46.549Z,95595.16
2023-05-17T20:37:13.206Z,95595.38
2023-05-17T20:39:39.942Z,95589.06
2023-05-17T20:42:08.394Z,95600.88
2023-05-17T20:44:35.862Z,95589.75
2023-05-17T20:47:04.857Z,95599.88
2023-05-17T20:49:31.899Z,95601.84
2023-05-17T20:52:02.683Z,95604.06
2023-05-17T20:54:30.582Z,95608.84
2023-05-17T20:56:58.183Z,95606.97
2023-05-17T20:59:25.865Z,95603.50
2023-05-17T21:01:53.093Z,95605.13
2023-05-17T21:04:19.877Z,95606.63
2023-05-17T21:06:46.931Z,95610.38
2023-05-17T21:09:14.035Z,95610.84
2023-05-17T21:11:41.022Z,95610.97
2023-05-17T21:14:07.694Z,95606.78
2023-05-17T21:16:35.432Z,95612.63
2023-05-17T21:19:02.531Z,95612.03
2023-05-17T21:21:29.285Z,95611.94
2023-05-17T21:23:56.001Z,95606.00
2023-05-17T21:26:23.268Z,95613.50
2023-05-17T21:28:50.022Z,95606.63
2023-05-17T21:31:16.862Z,95601.97
2023-05-17T21:33:46.636Z,95604.97
2023-05-17T21:36:13.220Z,95603.69
2023-05-17T21:38:40.112Z,95599.53
2023-05-17T21:41:06.799Z,95606.09
2023-05-17T21:43:33.506Z,95597.00
2023-05-17T21:46:00.193Z,95596.31
2023-05-17T21:48:26.983Z,95597.94
2023-05-17T21:50:53.747Z,95595.78
2023-05-17T21:53:20.682Z,95595.75
2023-05-17T21:58:20.433Z,95591.34
2023-05-17T22:00:47.492Z,95596.47
2023-05-17T22:03:14.185Z,95600.56
2023-05-17T22:05:40.983Z,95589.56
2023-05-17T22:08:07.747Z,95587.09
2023-05-17T22:10:34.493Z,95583.25
2023-05-17T22:13:02.230Z,95590.25
2023-05-17T22:15:28.963Z,95588.38
2023-05-17T22:17:55.878Z,95584.53
2023-05-17T22:20:23.894Z,95590.56
2023-05-17T22:22:50.715Z,95590.56
2023-05-17T22:25:17.884Z,95582.41
2023-05-17T22:27:45.411Z,95581.44
2023-05-17T22:30:12.338Z,95586.53
2023-05-17T22:32:40.245Z,95582.69
2023-05-17T22:35:07.293Z,95582.91
2023-05-17T22:37:34.055Z,95576.13
2023-05-17T22:40:00.805Z,95574.63
2023-05-17T22:42:27.614Z,95578.81
2023-05-17T22:44:54.328Z,95581.09
2023-05-17T22:47:23.104Z,95573.75
2023-05-17T22:49:52.730Z,95575.84
2023-05-17T22:52:19.828Z,95573.56
2023-05-17T22:54:46.488Z,95568.44
2023-05-17T22:57:13.324Z,95567.88
2023-05-17T22:59:40.091Z,95560.53
2023-05-17T23:02:06.925Z,95562.53
2023-05-17T23:04:33.707Z,95554.34
2023-05-17T23:07:02.166Z,95556.44
2023-05-17T23:09:33.921Z,95551.09
2023-05-17T23:12:05.506Z,95548.72
2023-05-17T23:14:36.357Z,95544.41
2023-05-17T23:17:04.151Z,95541.63
2023-05-17T23:19:33.303Z,95542.81
2023-05-17T23:22:03.508Z,95532.63
2023-05-17T23:24:30.345Z,95538.38
2023-05-17T23:26:57.651Z,95533.25
2023-05-17T23:29:26.023Z,95532.06
2023-05-17T23:31:53.298Z,95523.56
2023-05-17T23:34:20.397Z,95527.16
2023-05-17T23:36:47.188Z,95519.47
2023-05-17T23:39:13.779Z,95516.91
2023-05-17T23:41:40.624Z,95516.28
2023-05-17T23:44:07.893Z,95519.56
2023-05-17T23:46:34.858Z,95517.56
2023-05-17T23:49:02.413Z,95516.41
2023-05-17T23:51:29.262Z,95513.00
2023-05-17T23:53:56.326Z,95516.91
2023-05-17T23:56:23.270Z,95517.97
2023-05-17T23:58:50.128Z,95516.41
